sensor_id;sensor_type;location;lat;lon;timestamp;temperature;humidity
34560;DHT22;20800;55.870;37.328;2022-10-16T00:01:26;2.30;99.90
34560;DHT22;20800;55.870;37.328;2022-10-16T00:03:53;2.30;99.90
34560;DHT22;20800;55.870;37.328;2022-10-16T00:06:21;2.20;99.90
34560;DHT22;20800;55.870;37.328;2022-10-16T00:08:48;2.20;99.90
34560;DHT22;20800;55.870;37.328;2022-10-16T00:11:17;2.10;99.90
34560;DHT22;20800;55.870;37.328;2022-10-16T00:13:45;2.10;99.90
34560;DHT22;20800;55.870;37.328;2022-10-16T00:16:12;2.10;99.90
34560;DHT22;20800;55.870;37.328;2022-10-16T00:18:40;2.10;99.90
34560;DHT22;20800;55.870;37.328;2022-10-16T00:21:12;2.10;99.90
34560;DHT22;20800;55.870;37.328;2022-10-16T00:24:01;2.10;99.90
34560;DHT22;20800;55.870;37.328;2022-10-16T00:26:29;2.00;99.90
34560;DHT22;20800;55.870;37.328;2022-10-16T00:28:55;2.00;99.90
34560;DHT22;20800;55.870;37.328;2022-10-16T00:31:22;1.90;99.90
34560;DHT22;20800;55.870;37.328;2022-10-16T00:33:49;1.90;99.90
34560;DHT22;20800;55.870;37.328;2022-10-16T00:36:17;1.90;99.90
34560;DHT22;20800;55.870;37.328;2022-10-16T00:38:44;2.10;99.90
34560;DHT22;20800;55.870;37.328;2022-10-16T00:41:12;2.10;99.90
34560;DHT22;20800;55.870;37.328;2022-10-16T00:46:21;2.20;99.90
34560;DHT22;20800;55.870;37.328;2022-10-16T00:49:03;2.20;99.90
34560;DHT22;20800;55.870;37.328;2022-10-16T00:51:50;2.20;99.90
34560;DHT22;20800;55.870;37.328;2022-10-16T00:54:26;2.20;99.90
34560;DHT22;20800;55.870;37.328;2022-10-16T00:56:54;2.20;99.90
34560;DHT22;20800;55.870;37.328;2022-10-16T00:59:35;2.10;99.90
34560;DHT22;20800;55.870;37.328;2022-10-16T01:02:03;2.10;99.90
34560;DHT22;20800;55.870;37.328;2022-10-16T01:04:36;2.00;99.90
34560;DHT22;20800;55.870;37.328;2022-10-16T01:07:26;2.00;99.90
34560;DHT22;20800;55.870;37.328;2022-10-16T01:12:48;1.90;99.90
34560;DHT22;20800;55.870;37.328;2022-10-16T01:15:36;1.90;99.90
34560;DHT22;20800;55.870;37.328;2022-10-16T01:18:18;1.90;99.90
34560;DHT22;20800;55.870;37.328;2022-10-16T01:20:58;1.90;99.90
34560;DHT22;20800;55.870;37.328;2022-10-16T01:23:49;1.80;99.90
34560;DHT22;20800;55.870;37.328;2022-10-16T01:29:15;2.00;99.90
34560;DHT22;20800;55.870;37.328;2022-10-16T01:31:49;2.00;99.90
34560;DHT22;20800;55.870;37.328;2022-10-16T01:40:00;1.90;99.90
34560;DHT22;20800;55.870;37.328;2022-10-16T01:42:36;1.90;99.90
34560;DHT22;20800;55.870;37.328;2022-10-16T01:45:05;1.90;99.90
34560;DHT22;20800;55.870;37.328;2022-10-16T01:47:33;1.90;99.90
34560;DHT22;20800;55.870;37.328;2022-10-16T01:50:02;1.90;99.90
34560;DHT22;20800;55.870;37.328;2022-10-16T01:52:32;1.80;99.90
34560;DHT22;20800;55.870;37.328;2022-10-16T01:55:00;1.80;99.90
34560;DHT22;20800;55.870;37.328;2022-10-16T01:57:29;1.70;99.90
34560;DHT22;20800;55.870;37.328;2022-10-16T01:59:58;1.70;99.90
34560;DHT22;20800;55.870;37.328;2022-10-16T02:02:28;1.70;99.90
34560;DHT22;20800;55.870;37.328;2022-10-16T02:05:07;1.60;99.90
34560;DHT22;20800;55.870;37.328;2022-10-16T02:07:35;1.60;99.90
34560;DHT22;20800;55.870;37.328;2022-10-16T02:10:02;1.60;99.90
34560;DHT22;20800;55.870;37.328;2022-10-16T02:12:31;1.60;99.90
34560;DHT22;20800;55.870;37.328;2022-10-16T02:14:58;1.60;99.90
34560;DHT22;20800;55.870;37.328;2022-10-16T02:17:24;1.60;99.90
34560;DHT22;20800;55.870;37.328;2022-10-16T02:19:53;1.70;99.90
34560;DHT22;20800;55.870;37.328;2022-10-16T02:22:30;1.70;99.90
34560;DHT22;20800;55.870;37.328;2022-10-16T02:25:25;1.70;99.90
34560;DHT22;20800;55.870;37.328;2022-10-16T02:30:27;1.70;99.90
34560;DHT22;20800;55.870;37.328;2022-10-16T02:32:56;1.70;99.90
34560;DHT22;20800;55.870;37.328;2022-10-16T02:35:24;1.70;99.90
34560;DHT22;20800;55.870;37.328;2022-10-16T02:37:51;1.70;99.90
34560;DHT22;20800;55.870;37.328;2022-10-16T02:40:17;1.60;99.90
34560;DHT22;20800;55.870;37.328;2022-10-16T02:42:44;1.60;99.90
34560;DHT22;20800;55.870;37.328;2022-10-16T02:45:11;1.50;99.90
34560;DHT22;20800;55.870;37.328;2022-10-16T02:47:37;1.50;99.90
34560;DHT22;20800;55.870;37.328;2022-10-16T02:50:03;1.40;99.90
34560;DHT22;20800;55.870;37.328;2022-10-16T02:52:29;1.40;99.90
34560;DHT22;20800;55.870;37.328;2022-10-16T02:54:55;1.40;99.90
34560;DHT22;20800;55.870;37.328;2022-10-16T02:57:22;1.40;99.90
34560;DHT22;20800;55.870;37.328;2022-10-16T02:59:48;1.40;99.90
34560;DHT22;20800;55.870;37.328;2022-10-16T03:02:14;1.40;99.90
34560;DHT22;20800;55.870;37.328;2022-10-16T03:04:40;1.40;99.90
34560;DHT22;20800;55.870;37.328;2022-10-16T03:07:06;1.40;99.90
34560;DHT22;20800;55.870;37.328;2022-10-16T03:09:33;1.40;99.90
34560;DHT22;20800;55.870;37.328;2022-10-16T03:11:59;1.40;99.90
34560;DHT22;20800;55.870;37.328;2022-10-16T03:14:25;1.40;99.90
34560;DHT22;20800;55.870;37.328;2022-10-16T03:16:51;1.30;99.90
34560;DHT22;20800;55.870;37.328;2022-10-16T03:19:17;1.40;99.90
34560;DHT22;20800;55.870;37.328;2022-10-16T03:21:44;1.40;99.90
34560;DHT22;20800;55.870;37.328;2022-10-16T03:24:10;1.40;99.90
34560;DHT22;20800;55.870;37.328;2022-10-16T03:26:36;1.40;99.90
34560;DHT22;20800;55.870;37.328;2022-10-16T03:29:02;1.40;99.90
34560;DHT22;20800;55.870;37.328;2022-10-16T03:31:29;1.40;99.90
34560;DHT22;20800;55.870;37.328;2022-10-16T03:33:56;1.40;99.90
34560;DHT22;20800;55.870;37.328;2022-10-16T03:36:22;1.40;99.90
34560;DHT22;20800;55.870;37.328;2022-10-16T03:38:48;1.40;99.90
34560;DHT22;20800;55.870;37.328;2022-10-16T03:41:14;1.40;99.90
34560;DHT22;20800;55.870;37.328;2022-10-16T03:43:40;1.40;99.90
34560;DHT22;20800;55.870;37.328;2022-10-16T03:46:06;1.40;99.90
34560;DHT22;20800;55.870;37.328;2022-10-16T03:48:32;1.50;99.90
34560;DHT22;20800;55.870;37.328;2022-10-16T03:50:58;1.50;99.90
34560;DHT22;20800;55.870;37.328;2022-10-16T03:53:24;1.40;99.90
34560;DHT22;20800;55.870;37.328;2022-10-16T03:55:50;1.40;99.90
34560;DHT22;20800;55.870;37.328;2022-10-16T03:58:17;1.40;99.90
34560;DHT22;20800;55.870;37.328;2022-10-16T04:00:44;1.40;99.90
34560;DHT22;20800;55.870;37.328;2022-10-16T04:03:11;1.30;99.90
34560;DHT22;20800;55.870;37.328;2022-10-16T04:05:37;1.30;99.90
34560;DHT22;20800;55.870;37.328;2022-10-16T04:08:03;1.30;99.90
34560;DHT22;20800;55.870;37.328;2022-10-16T04:10:29;1.20;99.90
34560;DHT22;20800;55.870;37.328;2022-10-16T04:12:55;1.30;99.90
34560;DHT22;20800;55.870;37.328;2022-10-16T04:15:22;1.30;99.90
34560;DHT22;20800;55.870;37.328;2022-10-16T04:17:49;1.30;99.90
34560;DHT22;20800;55.870;37.328;2022-10-16T04:20:15;1.40;99.90
34560;DHT22;20800;55.870;37.328;2022-10-16T04:22:41;1.40;99.90
34560;DHT22;20800;55.870;37.328;2022-10-16T04:25:07;1.50;99.90
34560;DHT22;20800;55.870;37.328;2022-10-16T04:27:33;1.50;99.90
34560;DHT22;20800;55.870;37.328;2022-10-16T04:29:59;1.60;99.90
34560;DHT22;20800;55.870;37.328;2022-10-16T04:32:26;1.50;99.90
34560;DHT22;20800;55.870;37.328;2022-10-16T04:34:52;1.50;99.90
34560;DHT22;20800;55.870;37.328;2022-10-16T04:37:19;1.60;99.90
34560;DHT22;20800;55.870;37.328;2022-10-16T04:39:44;1.60;99.90
34560;DHT22;20800;55.870;37.328;2022-10-16T04:42:11;1.60;99.90
34560;DHT22;20800;55.870;37.328;2022-10-16T04:44:37;1.60;99.90
34560;DHT22;20800;55.870;37.328;2022-10-16T04:47:02;1.50;99.90
34560;DHT22;20800;55.870;37.328;2022-10-16T04:49:31;1.60;99.90
34560;DHT22;20800;55.870;37.328;2022-10-16T04:51:57;1.60;99.90
34560;DHT22;20800;55.870;37.328;2022-10-16T04:54:23;1.70;99.90
34560;DHT22;20800;55.870;37.328;2022-10-16T04:56:49;1.80;99.90
34560;DHT22;20800;55.870;37.328;2022-10-16T04:59:17;1.90;99.90
34560;DHT22;20800;55.870;37.328;2022-10-16T05:01:44;2.00;99.90
34560;DHT22;20800;55.870;37.328;2022-10-16T05:04:10;2.00;99.90
34560;DHT22;20800;55.870;37.328;2022-10-16T05:06:36;2.10;99.90
34560;DHT22;20800;55.870;37.328;2022-10-16T05:09:04;2.10;99.90
34560;DHT22;20800;55.870;37.328;2022-10-16T05:11:31;2.30;99.90
34560;DHT22;20800;55.870;37.328;2022-10-16T05:13:57;2.40;99.90
34560;DHT22;20800;55.870;37.328;2022-10-16T05:16:23;2.60;99.90
34560;DHT22;20800;55.870;37.328;2022-10-16T05:18:49;2.70;99.90
34560;DHT22;20800;55.870;37.328;2022-10-16T05:21:15;2.70;99.90
34560;DHT22;20800;55.870;37.328;2022-10-16T05:23:40;2.80;99.90
34560;DHT22;20800;55.870;37.328;2022-10-16T05:26:06;2.90;99.90
34560;DHT22;20800;55.870;37.328;2022-10-16T05:28:32;3.00;99.90
34560;DHT22;20800;55.870;37.328;2022-10-16T05:30:58;3.10;99.90
34560;DHT22;20800;55.870;37.328;2022-10-16T05:33:26;3.20;99.90
34560;DHT22;20800;55.870;37.328;2022-10-16T05:35:52;3.60;99.90
34560;DHT22;20800;55.870;37.328;2022-10-16T05:38:18;4.90;99.90
34560;DHT22;20800;55.870;37.328;2022-10-16T05:40:51;5.90;99.90
34560;DHT22;20800;55.870;37.328;2022-10-16T05:43:18;6.60;99.90
34560;DHT22;20800;55.870;37.328;2022-10-16T05:45:44;7.20;99.30
34560;DHT22;20800;55.870;37.328;2022-10-16T05:48:10;7.50;95.70
34560;DHT22;20800;55.870;37.328;2022-10-16T05:50:36;7.50;93.60
34560;DHT22;20800;55.870;37.328;2022-10-16T05:53:02;7.60;92.90
34560;DHT22;20800;55.870;37.328;2022-10-16T05:55:28;7.70;91.90
34560;DHT22;20800;55.870;37.328;2022-10-16T05:57:54;7.60;91.00
34560;DHT22;20800;55.870;37.328;2022-10-16T06:00:20;7.60;91.10
34560;DHT22;20800;55.870;37.328;2022-10-16T06:02:46;7.70;91.20
34560;DHT22;20800;55.870;37.328;2022-10-16T06:05:12;7.60;90.50
34560;DHT22;20800;55.870;37.328;2022-10-16T06:07:38;7.60;90.40
34560;DHT22;20800;55.870;37.328;2022-10-16T06:10:04;7.60;91.20
34560;DHT22;20800;55.870;37.328;2022-10-16T06:12:31;7.60;90.80
34560;DHT22;20800;55.870;37.328;2022-10-16T06:14:57;7.70;90.50
34560;DHT22;20800;55.870;37.328;2022-10-16T06:17:23;7.70;90.10
34560;DHT22;20800;55.870;37.328;2022-10-16T06:19:49;7.80;90.30
34560;DHT22;20800;55.870;37.328;2022-10-16T06:22:16;8.00;89.90
34560;DHT22;20800;55.870;37.328;2022-10-16T06:24:42;8.10;88.50
34560;DHT22;20800;55.870;37.328;2022-10-16T06:27:08;8.20;85.80
34560;DHT22;20800;55.870;37.328;2022-10-16T06:29:34;8.30;85.80
34560;DHT22;20800;55.870;37.328;2022-10-16T06:32:00;8.30;84.60
34560;DHT22;20800;55.870;37.328;2022-10-16T06:34:26;8.40;87.00
34560;DHT22;20800;55.870;37.328;2022-10-16T06:36:51;8.50;85.20
34560;DHT22;20800;55.870;37.328;2022-10-16T06:39:17;8.40;83.20
34560;DHT22;20800;55.870;37.328;2022-10-16T06:41:43;8.50;86.20
34560;DHT22;20800;55.870;37.328;2022-10-16T06:44:15;8.60;84.00
34560;DHT22;20800;55.870;37.328;2022-10-16T06:46:41;8.60;82.70
34560;DHT22;20800;55.870;37.328;2022-10-16T06:49:07;8.50;82.20
34560;DHT22;20800;55.870;37.328;2022-10-16T06:51:33;8.50;83.60
34560;DHT22;20800;55.870;37.328;2022-10-16T06:54:01;8.60;82.90
34560;DHT22;20800;55.870;37.328;2022-10-16T06:56:28;8.70;84.40
34560;DHT22;20800;55.870;37.328;2022-10-16T06:58:55;8.70;80.40
34560;DHT22;20800;55.870;37.328;2022-10-16T07:01:22;8.80;81.70
34560;DHT22;20800;55.870;37.328;2022-10-16T07:03:49;8.80;82.10
34560;DHT22;20800;55.870;37.328;2022-10-16T07:06:17;8.80;81.60
34560;DHT22;20800;55.870;37.328;2022-10-16T07:08:45;8.90;82.30
34560;DHT22;20800;55.870;37.328;2022-10-16T07:11:14;8.90;80.90
34560;DHT22;20800;55.870;37.328;2022-10-16T07:13:41;8.90;82.00
34560;DHT22;20800;55.870;37.328;2022-10-16T07:16:09;8.90;81.00
34560;DHT22;20800;55.870;37.328;2022-10-16T07:18:35;8.90;80.80
34560;DHT22;20800;55.870;37.328;2022-10-16T07:21:12;8.90;78.00
34560;DHT22;20800;55.870;37.328;2022-10-16T07:23:39;8.80;80.20
34560;DHT22;20800;55.870;37.328;2022-10-16T07:26:06;8.80;81.50
34560;DHT22;20800;55.870;37.328;2022-10-16T07:28:33;9.00;82.40
34560;DHT22;20800;55.870;37.328;2022-10-16T07:31:04;9.00;82.00
34560;DHT22;20800;55.870;37.328;2022-10-16T07:33:31;9.10;82.00
34560;DHT22;20800;55.870;37.328;2022-10-16T07:35:57;9.20;81.20
34560;DHT22;20800;55.870;37.328;2022-10-16T07:38:23;9.10;77.70
34560;DHT22;20800;55.870;37.328;2022-10-16T07:41:05;9.20;80.60
34560;DHT22;20800;55.870;37.328;2022-10-16T07:43:32;9.40;80.80
34560;DHT22;20800;55.870;37.328;2022-10-16T07:45:59;9.60;78.90
34560;DHT22;20800;55.870;37.328;2022-10-16T07:48:28;9.80;78.30
34560;DHT22;20800;55.870;37.328;2022-10-16T07:50:59;9.70;77.60
34560;DHT22;20800;55.870;37.328;2022-10-16T07:53:25;9.90;76.40
34560;DHT22;20800;55.870;37.328;2022-10-16T07:55:51;10.10;73.60
34560;DHT22;20800;55.870;37.328;2022-10-16T07:58:17;10.30;73.00
34560;DHT22;20800;55.870;37.328;2022-10-16T08:00:43;10.20;70.40
34560;DHT22;20800;55.870;37.328;2022-10-16T08:03:09;10.40;73.00
34560;DHT22;20800;55.870;37.328;2022-10-16T08:05:35;10.30;71.00
34560;DHT22;20800;55.870;37.328;2022-10-16T08:08:02;10.60;71.20
34560;DHT22;20800;55.870;37.328;2022-10-16T08:10:28;10.90;70.70
34560;DHT22;20800;55.870;37.328;2022-10-16T08:12:55;11.10;68.80
34560;DHT22;20800;55.870;37.328;2022-10-16T08:15:21;11.30;68.00
34560;DHT22;20800;55.870;37.328;2022-10-16T08:17:57;11.30;67.40
34560;DHT22;20800;55.870;37.328;2022-10-16T08:20:26;11.40;62.70
34560;DHT22;20800;55.870;37.328;2022-10-16T08:22:52;11.20;64.50
34560;DHT22;20800;55.870;37.328;2022-10-16T08:25:20;11.30;66.00
34560;DHT22;20800;55.870;37.328;2022-10-16T08:27:46;11.60;65.20
34560;DHT22;20800;55.870;37.328;2022-10-16T08:30:13;11.80;65.00
34560;DHT22;20800;55.870;37.328;2022-10-16T08:32:39;11.80;62.30
34560;DHT22;20800;55.870;37.328;2022-10-16T08:35:07;11.80;63.60
34560;DHT22;20800;55.870;37.328;2022-10-16T08:37:33;11.80;62.80
34560;DHT22;20800;55.870;37.328;2022-10-16T08:39:59;12.00;63.50
34560;DHT22;20800;55.870;37.328;2022-10-16T08:48:27;12.50;61.20
34560;DHT22;20800;55.870;37.328;2022-10-16T08:50:47;12.70;59.40
34560;DHT22;20800;55.870;37.328;2022-10-16T08:53:28;12.70;58.90
34560;DHT22;20800;55.870;37.328;2022-10-16T08:55:56;12.90;59.00
34560;DHT22;20800;55.870;37.328;2022-10-16T08:58:29;12.90;58.60
34560;DHT22;20800;55.870;37.328;2022-10-16T09:01:02;13.00;57.10
34560;DHT22;20800;55.870;37.328;2022-10-16T09:06:42;13.10;54.60
34560;DHT22;20800;55.870;37.328;2022-10-16T09:22:46;13.60;53.50
34560;DHT22;20800;55.870;37.328;2022-10-16T09:25:17;13.70;52.10
34560;DHT22;20800;55.870;37.328;2022-10-16T09:27:48;14.00;52.70
34560;DHT22;20800;55.870;37.328;2022-10-16T09:30:17;14.10;52.10
34560;DHT22;20800;55.870;37.328;2022-10-16T09:32:46;13.90;47.40
34560;DHT22;20800;55.870;37.328;2022-10-16T09:35:19;13.90;49.20
34560;DHT22;20800;55.870;37.328;2022-10-16T09:37:49;13.80;48.50
34560;DHT22;20800;55.870;37.328;2022-10-16T09:40:34;13.90;49.60
34560;DHT22;20800;55.870;37.328;2022-10-16T09:45:39;13.80;50.60
34560;DHT22;20800;55.870;37.328;2022-10-16T09:48:12;13.90;50.80
34560;DHT22;20800;55.870;37.328;2022-10-16T09:50:38;13.70;49.00
34560;DHT22;20800;55.870;37.328;2022-10-16T09:53:12;13.60;50.60
34560;DHT22;20800;55.870;37.328;2022-10-16T09:55:49;13.80;50.10
34560;DHT22;20800;55.870;37.328;2022-10-16T09:58:16;13.90;49.20
34560;DHT22;20800;55.870;37.328;2022-10-16T10:00:51;13.80;48.30
34560;DHT22;20800;55.870;37.328;2022-10-16T10:03:37;13.80;49.70
34560;DHT22;20800;55.870;37.328;2022-10-16T10:06:14;14.10;45.70
34560;DHT22;20800;55.870;37.328;2022-10-16T10:08:56;14.20;49.10
34560;DHT22;20800;55.870;37.328;2022-10-16T10:11:52;14.30;48.00
34560;DHT22;20800;55.870;37.328;2022-10-16T10:16:51;14.30;45.60
34560;DHT22;20800;55.870;37.328;2022-10-16T10:19:20;14.30;46.90
34560;DHT22;20800;55.870;37.328;2022-10-16T10:21:48;14.10;47.40
34560;DHT22;20800;55.870;37.328;2022-10-16T10:24:15;14.00;47.50
34560;DHT22;20800;55.870;37.328;2022-10-16T10:27:11;14.10;43.20
34560;DHT22;20800;55.870;37.328;2022-10-16T10:30:00;14.10;43.80
34560;DHT22;20800;55.870;37.328;2022-10-16T10:32:54;14.20;46.80
34560;DHT22;20800;55.870;37.328;2022-10-16T10:35:28;14.20;44.40
34560;DHT22;20800;55.870;37.328;2022-10-16T10:38:16;14.20;42.50
34560;DHT22;20800;55.870;37.328;2022-10-16T10:40:54;14.10;46.10
34560;DHT22;20800;55.870;37.328;2022-10-16T10:46:02;13.90;47.10
34560;DHT22;20800;55.870;37.328;2022-10-16T10:57:34;14.30;45.90
34560;DHT22;20800;55.870;37.328;2022-10-16T11:00:06;14.20;43.60
34560;DHT22;20800;55.870;37.328;2022-10-16T11:02:44;14.30;43.90
34560;DHT22;20800;55.870;37.328;2022-10-16T11:05:52;14.00;43.60
34560;DHT22;20800;55.870;37.328;2022-10-16T11:11:45;14.00;42.50
34560;DHT22;20800;55.870;37.328;2022-10-16T11:14:22;13.90;47.10
34560;DHT22;20800;55.870;37.328;2022-10-16T11:16:56;14.40;46.10
34560;DHT22;20800;55.870;37.328;2022-10-16T11:22:04;14.10;45.10
34560;DHT22;20800;55.870;37.328;2022-10-16T11:30:39;14.10;44.70
34560;DHT22;20800;55.870;37.328;2022-10-16T11:46:52;14.20;42.80
34560;DHT22;20800;55.870;37.328;2022-10-16T11:49:25;14.20;45.40
34560;DHT22;20800;55.870;37.328;2022-10-16T11:54:54;13.80;46.30
34560;DHT22;20800;55.870;37.328;2022-10-16T11:57:33;13.90;45.60
34560;DHT22;20800;55.870;37.328;2022-10-16T12:00:23;13.80;44.70
34560;DHT22;20800;55.870;37.328;2022-10-16T12:03:00;13.60;46.60
34560;DHT22;20800;55.870;37.328;2022-10-16T12:10:33;13.80;42.70
34560;DHT22;20800;55.870;37.328;2022-10-16T12:13:04;13.60;45.50
34560;DHT22;20800;55.870;37.328;2022-10-16T12:15:33;13.60;45.30
34560;DHT22;20800;55.870;37.328;2022-10-16T12:17:59;13.60;46.30
34560;DHT22;20800;55.870;37.328;2022-10-16T12:20:31;13.60;46.40
34560;DHT22;20800;55.870;37.328;2022-10-16T12:23:02;13.50;46.50
34560;DHT22;20800;55.870;37.328;2022-10-16T12:25:29;13.40;44.00
34560;DHT22;20800;55.870;37.328;2022-10-16T12:30:31;13.30;46.10
34560;DHT22;20800;55.870;37.328;2022-10-16T12:33:01;13.30;46.40
34560;DHT22;20800;55.870;37.328;2022-10-16T12:35:30;13.20;46.40
34560;DHT22;20800;55.870;37.328;2022-10-16T12:38:16;13.20;46.90
34560;DHT22;20800;55.870;37.328;2022-10-16T12:40:44;13.10;47.00
34560;DHT22;20800;55.870;37.328;2022-10-16T12:46:18;12.90;47.30
34560;DHT22;20800;55.870;37.328;2022-10-16T12:48:46;12.80;45.60
34560;DHT22;20800;55.870;37.328;2022-10-16T12:59:32;12.60;47.80
34560;DHT22;20800;55.870;37.328;2022-10-16T13:04:55;12.40;48.80
34560;DHT22;20800;55.870;37.328;2022-10-16T13:16:05;12.20;48.10
34560;DHT22;20800;55.870;37.328;2022-10-16T13:29:31;12.20;49.50
34560;DHT22;20800;55.870;37.328;2022-10-16T13:31:59;12.00;49.90
34560;DHT22;20800;55.870;37.328;2022-10-16T13:34:27;11.80;50.60
34560;DHT22;20800;55.870;37.328;2022-10-16T13:36:54;11.60;51.10
34560;DHT22;20800;55.870;37.328;2022-10-16T13:39:30;11.50;51.30
34560;DHT22;20800;55.870;37.328;2022-10-16T13:44:46;11.20;51.90
34560;DHT22;20800;55.870;37.328;2022-10-16T13:47:18;11.10;52.30
34560;DHT22;20800;55.870;37.328;2022-10-16T13:49:45;11.00;52.50
34560;DHT22;20800;55.870;37.328;2022-10-16T13:52:20;10.90;52.60
34560;DHT22;20800;55.870;37.328;2022-10-16T13:54:46;10.80;52.90
34560;DHT22;20800;55.870;37.328;2022-10-16T13:57:16;10.60;53.40
34560;DHT22;20800;55.870;37.328;2022-10-16T13:59:42;10.40;54.20
34560;DHT22;20800;55.870;37.328;2022-10-16T14:02:34;10.20;54.60
34560;DHT22;20800;55.870;37.328;2022-10-16T14:05:02;10.00;55.20
34560;DHT22;20800;55.870;37.328;2022-10-16T14:07:31;9.90;56.10
34560;DHT22;20800;55.870;37.328;2022-10-16T14:10:18;9.80;56.20
34560;DHT22;20800;55.870;37.328;2022-10-16T14:12:57;9.70;56.70
34560;DHT22;20800;55.870;37.328;2022-10-16T14:15:24;9.60;56.90
34560;DHT22;20800;55.870;37.328;2022-10-16T14:17:52;9.50;57.20
34560;DHT22;20800;55.870;37.328;2022-10-16T14:20:22;9.40;58.40
34560;DHT22;20800;55.870;37.328;2022-10-16T14:23:02;9.30;58.30
34560;DHT22;20800;55.870;37.328;2022-10-16T14:25:30;9.20;58.60
34560;DHT22;20800;55.870;37.328;2022-10-16T14:28:02;9.10;59.00
34560;DHT22;20800;55.870;37.328;2022-10-16T14:30:30;9.10;59.50
34560;DHT22;20800;55.870;37.328;2022-10-16T14:32:59;9.00;59.50
34560;DHT22;20800;55.870;37.328;2022-10-16T14:35:38;9.00;59.60
34560;DHT22;20800;55.870;37.328;2022-10-16T14:38:05;9.00;59.80
34560;DHT22;20800;55.870;37.328;2022-10-16T14:40:35;8.90;60.10
34560;DHT22;20800;55.870;37.328;2022-10-16T14:43:02;8.80;60.20
34560;DHT22;20800;55.870;37.328;2022-10-16T14:45:31;8.70;60.90
34560;DHT22;20800;55.870;37.328;2022-10-16T14:48:01;8.60;61.30
34560;DHT22;20800;55.870;37.328;2022-10-16T14:50:28;8.50;62.80
34560;DHT22;20800;55.870;37.328;2022-10-16T14:52:55;8.50;62.60
34560;DHT22;20800;55.870;37.328;2022-10-16T14:55:21;8.30;63.00
34560;DHT22;20800;55.870;37.328;2022-10-16T14:57:48;8.30;63.30
34560;DHT22;20800;55.870;37.328;2022-10-16T15:00:24;8.30;63.60
34560;DHT22;20800;55.870;37.328;2022-10-16T15:02:50;8.30;63.90
34560;DHT22;20800;55.870;37.328;2022-10-16T15:05:20;8.20;64.10
34560;DHT22;20800;55.870;37.328;2022-10-16T15:07:48;8.20;64.20
34560;DHT22;20800;55.870;37.328;2022-10-16T15:10:16;8.10;65.00
34560;DHT22;20800;55.870;37.328;2022-10-16T15:12:43;8.00;65.30
34560;DHT22;20800;55.870;37.328;2022-10-16T15:15:35;8.00;65.90
34560;DHT22;20800;55.870;37.328;2022-10-16T15:18:02;8.00;66.10
34560;DHT22;20800;55.870;37.328;2022-10-16T15:20:36;7.90;66.20
34560;DHT22;20800;55.870;37.328;2022-10-16T15:23:10;8.00;66.70
34560;DHT22;20800;55.870;37.328;2022-10-16T15:25:44;8.00;66.50
34560;DHT22;20800;55.870;37.328;2022-10-16T15:28:11;8.00;66.90
34560;DHT22;20800;55.870;37.328;2022-10-16T15:30:38;7.90;67.20
34560;DHT22;20800;55.870;37.328;2022-10-16T15:33:05;7.80;67.60
34560;DHT22;20800;55.870;37.328;2022-10-16T15:35:35;7.80;68.40
34560;DHT22;20800;55.870;37.328;2022-10-16T15:38:02;7.80;68.70
34560;DHT22;20800;55.870;37.328;2022-10-16T15:40:28;7.90;68.70
34560;DHT22;20800;55.870;37.328;2022-10-16T15:42:54;7.80;68.70
34560;DHT22;20800;55.870;37.328;2022-10-16T15:45:20;7.70;68.80
34560;DHT22;20800;55.870;37.328;2022-10-16T15:47:46;7.70;69.40
34560;DHT22;20800;55.870;37.328;2022-10-16T15:50:13;7.60;69.60
34560;DHT22;20800;55.870;37.328;2022-10-16T15:52:40;7.60;70.40
34560;DHT22;20800;55.870;37.328;2022-10-16T15:55:08;7.60;70.50
34560;DHT22;20800;55.870;37.328;2022-10-16T15:57:35;7.60;70.50
34560;DHT22;20800;55.870;37.328;2022-10-16T16:00:08;7.60;70.50
34560;DHT22;20800;55.870;37.328;2022-10-16T16:02:38;7.70;70.60
34560;DHT22;20800;55.870;37.328;2022-10-16T16:05:04;7.70;70.90
34560;DHT22;20800;55.870;37.328;2022-10-16T16:07:35;7.70;70.80
34560;DHT22;20800;55.870;37.328;2022-10-16T16:10:03;7.70;71.10
34560;DHT22;20800;55.870;37.328;2022-10-16T16:12:30;7.70;71.00
34560;DHT22;20800;55.870;37.328;2022-10-16T16:14:56;7.70;70.90
34560;DHT22;20800;55.870;37.328;2022-10-16T16:17:22;7.70;71.00
34560;DHT22;20800;55.870;37.328;2022-10-16T16:19:50;7.70;70.90
34560;DHT22;20800;55.870;37.328;2022-10-16T16:22:17;7.70;71.50
34560;DHT22;20800;55.870;37.328;2022-10-16T16:24:43;7.70;71.30
34560;DHT22;20800;55.870;37.328;2022-10-16T16:27:09;7.70;71.60
34560;DHT22;20800;55.870;37.328;2022-10-16T16:29:35;7.60;71.40
34560;DHT22;20800;55.870;37.328;2022-10-16T16:32:01;7.60;72.10
34560;DHT22;20800;55.870;37.328;2022-10-16T16:34:28;7.60;72.00
34560;DHT22;20800;55.870;37.328;2022-10-16T16:36:55;7.60;72.20
34560;DHT22;20800;55.870;37.328;2022-10-16T16:39:22;7.60;72.10
34560;DHT22;20800;55.870;37.328;2022-10-16T16:41:49;7.60;72.20
34560;DHT22;20800;55.870;37.328;2022-10-16T16:44:16;7.50;72.40
34560;DHT22;20800;55.870;37.328;2022-10-16T16:46:43;7.50;72.80
34560;DHT22;20800;55.870;37.328;2022-10-16T16:49:14;7.50;72.80
34560;DHT22;20800;55.870;37.328;2022-10-16T16:51:40;7.40;72.90
34560;DHT22;20800;55.870;37.328;2022-10-16T16:54:08;7.40;73.40
34560;DHT22;20800;55.870;37.328;2022-10-16T16:56:34;7.30;73.80
34560;DHT22;20800;55.870;37.328;2022-10-16T16:59:01;7.40;73.90
34560;DHT22;20800;55.870;37.328;2022-10-16T17:01:27;7.40;74.10
34560;DHT22;20800;55.870;37.328;2022-10-16T17:03:55;7.30;74.10
34560;DHT22;20800;55.870;37.328;2022-10-16T17:06:23;7.30;74.40
34560;DHT22;20800;55.870;37.328;2022-10-16T17:08:50;7.30;74.70
34560;DHT22;20800;55.870;37.328;2022-10-16T17:11:21;7.20;74.90
34560;DHT22;20800;55.870;37.328;2022-10-16T17:13:49;7.20;75.40
34560;DHT22;20800;55.870;37.328;2022-10-16T17:16:15;7.20;75.40
34560;DHT22;20800;55.870;37.328;2022-10-16T17:18:41;7.20;75.30
34560;DHT22;20800;55.870;37.328;2022-10-16T17:21:08;7.20;75.40
34560;DHT22;20800;55.870;37.328;2022-10-16T17:23:35;7.10;75.30
34560;DHT22;20800;55.870;37.328;2022-10-16T17:26:15;7.10;75.70
34560;DHT22;20800;55.870;37.328;2022-10-16T17:28:43;7.10;75.70
34560;DHT22;20800;55.870;37.328;2022-10-16T17:31:12;7.20;75.50
34560;DHT22;20800;55.870;37.328;2022-10-16T17:33:38;7.10;75.10
34560;DHT22;20800;55.870;37.328;2022-10-16T17:36:05;7.20;75.00
34560;DHT22;20800;55.870;37.328;2022-10-16T17:38:31;7.10;75.00
34560;DHT22;20800;55.870;37.328;2022-10-16T17:40:57;7.00;75.50
34560;DHT22;20800;55.870;37.328;2022-10-16T17:43:23;7.00;75.80
34560;DHT22;20800;55.870;37.328;2022-10-16T17:45:49;7.00;75.90
34560;DHT22;20800;55.870;37.328;2022-10-16T17:48:15;7.00;75.80
34560;DHT22;20800;55.870;37.328;2022-10-16T17:50:42;7.00;76.20